Time;durP1;ratioP1;P1;durP2;ratioP2;P2;SDS_P1;SDS_P2;PMS_P1;PMS_P2;Temp;Humidity;BMP_temperature;BMP_pressure;BME280_temperature;BME280_humidity;BME280_pressure;Samples;Min_cycle;Max_cycle;Signal;HPM_P1;HPM_P2
2023/12/08 00:00:08;;;;;;;23.50;9.77;;;;;;;-1.07;92.22;100897.28;126898;1089;101790;-83
2023/12/08 00:02:57;;;;;;;23.30;9.90;;;;;;;-1.07;92.61;100885.30;126826;1089;102331;-83
2023/12/08 00:05:25;;;;;;;25.57;10.43;;;;;;;-1.04;92.59;100888.15;126845;1089;102320;-83
2023/12/08 00:07:54;;;;;;;21.50;8.70;;;;;;;-1.02;92.79;100888.28;126815;1089;102478;-82
2023/12/08 00:10:23;;;;;;;23.07;10.07;;;;;;;-1.02;93.39;100893.44;126725;1089;101879;-82
2023/12/08 00:12:51;;;;;;;23.53;10.20;;;;;;;-1.04;93.09;100887.22;126811;1089;102076;-82
2023/12/08 00:15:20;;;;;;;27.00;11.05;;;;;;;-1.03;92.99;100892.50;126835;1089;104171;-83
2023/12/08 00:17:49;;;;;;;24.00;10.27;;;;;;;-1.03;93.20;100892.50;126802;1089;104263;-82
2023/12/08 00:20:18;;;;;;;24.03;10.20;;;;;;;-1.04;92.93;100892.38;126880;1089;102360;-83
2023/12/08 00:22:47;;;;;;;24.83;9.83;;;;;;;-1.03;93.16;100889.93;126780;1089;102326;-82
2023/12/08 00:25:16;;;;;;;22.23;9.63;;;;;;;-1.04;92.32;100887.22;126822;1089;104193;-82
2023/12/08 00:27:45;;;;;;;23.20;9.43;;;;;;;-1.08;93.08;100891.20;126854;1089;104238;-82
2023/12/08 00:30:14;;;;;;;23.27;8.90;;;;;;;-1.08;92.40;100891.20;126834;1089;104334;-82
2023/12/08 00:32:43;;;;;;;24.30;9.50;;;;;;;-1.11;93.21;100891.86;126768;1089;104325;-83
2023/12/08 00:35:12;;;;;;;23.10;10.37;;;;;;;-1.10;92.92;100890.18;126830;1089;104181;-82
2023/12/08 00:37:41;;;;;;;25.67;10.27;;;;;;;-1.10;92.75;100888.50;126827;1088;101867;-82
2023/12/08 00:40:12;;;;;;;22.50;9.43;;;;;;;-1.11;93.14;100885.78;126821;1089;104200;-82
2023/12/08 00:42:41;;;;;;;22.97;9.67;;;;;;;-1.15;93.00;100882.05;126874;1089;102092;-83
2023/12/08 00:45:11;;;;;;;23.43;9.40;;;;;;;-1.18;93.43;100884.34;126842;1088;102228;-82
2023/12/08 00:47:39;;;;;;;23.33;10.47;;;;;;;-1.19;94.01;100882.53;126810;1088;101985;-82
2023/12/08 00:50:09;;;;;;;25.80;10.30;;;;;;;-1.20;93.78;100874.67;126854;1089;101945;-81
2023/12/08 00:52:38;;;;;;;24.17;8.90;;;;;;;-1.21;93.77;100878.03;126902;1089;102289;-81
2023/12/08 00:55:08;;;;;;;24.10;10.43;;;;;;;-1.20;93.01;100872.09;126812;1089;101777;-81
2023/12/08 00:57:37;;;;;;;24.63;9.60;;;;;;;-1.21;93.35;100876.36;126875;1089;102261;-82
2023/12/08 01:00:08;;;;;;;24.63;11.00;;;;;;;-1.21;93.41;100878.92;126738;1089;104300;-82
2023/12/08 01:02:37;;;;;;;23.10;10.10;;;;;;;-1.22;93.75;100874.53;126799;1089;104203;-82
2023/12/08 01:05:07;;;;;;;25.53;10.33;;;;;;;-1.26;94.35;100864.75;126696;1089;104037;-80
2023/12/08 01:07:36;;;;;;;26.10;10.53;;;;;;;-1.23;93.50;100872.75;126874;1086;104296;-82
2023/12/08 01:10:07;;;;;;;22.03;9.20;;;;;;;-1.24;93.38;100865.78;126831;1089;104158;-82
2023/12/08 01:12:36;;;;;;;23.77;10.03;;;;;;;-1.24;93.60;100863.20;126800;1089;101909;-80
2023/12/08 01:15:09;;;;;;;22.17;9.20;;;;;;;-1.25;93.88;100874.27;126654;1089;104184;-82
2023/12/08 01:17:38;;;;;;;22.40;9.60;;;;;;;-1.27;93.77;100861.25;126741;1089;104351;-82
2023/12/08 01:20:09;;;;;;;21.67;9.07;;;;;;;-1.26;93.61;100862.18;126723;1089;101836;-81
2023/12/08 01:22:38;;;;;;;22.13;9.17;;;;;;;-1.25;93.64;100866.54;126807;1089;104190;-81
2023/12/08 01:25:08;;;;;;;22.60;9.27;;;;;;;-1.24;93.14;100865.78;126714;1089;104155;-82
2023/12/08 01:27:37;;;;;;;24.27;9.77;;;;;;;-1.22;93.99;100871.07;126933;1089;104190;-82
2023/12/08 01:30:08;;;;;;;26.60;11.40;;;;;;;-1.22;93.91;100876.22;126701;1089;103283;-82
2023/12/08 01:32:37;;;;;;;22.53;9.27;;;;;;;-1.22;94.36;100866.81;126862;1089;102120;-81
2023/12/08 01:35:06;;;;;;;21.97;9.30;;;;;;;-1.22;94.26;100861.66;126771;1089;102340;-82
2023/12/08 01:37:35;;;;;;;22.73;9.43;;;;;;;-1.21;94.20;100867.73;126831;1089;101823;-82
2023/12/08 01:40:06;;;;;;;25.17;9.90;;;;;;;-1.22;94.54;100861.66;126871;1089;104174;-82
2023/12/08 01:42:35;;;;;;;21.97;9.00;;;;;;;-1.20;93.74;100864.37;126851;1089;104322;-82
2023/12/08 01:45:05;;;;;;;22.70;9.67;;;;;;;-1.22;94.04;100855.62;126822;1088;104273;-82
2023/12/08 01:47:35;;;;;;;23.93;9.97;;;;;;;-1.22;94.40;100853.94;126813;1089;104235;-82
2023/12/08 01:50:06;;;;;;;21.70;9.17;;;;;;;-1.21;93.91;100852.28;126691;1089;104190;-82
2023/12/08 01:52:35;;;;;;;22.83;9.77;;;;;;;-1.24;93.69;100858.05;126836;1089;104156;-82
2023/12/08 01:55:05;;;;;;;22.17;9.13;;;;;;;-1.22;94.00;100858.19;126800;1088;104204;-82
2023/12/08 01:57:34;;;;;;;20.97;8.47;;;;;;;-1.21;94.26;100863.48;126778;1089;104146;-82
2023/12/08 02:00:05;;;;;;;20.93;8.20;;;;;;;-1.19;93.48;100855.89;126805;1089;104335;-82
2023/12/08 02:02:36;;;;;;;20.30;8.60;;;;;;;-1.20;94.17;100855.00;126807;1089;104261;-82
2023/12/08 02:05:07;;;;;;;22.17;9.17;;;;;;;-1.21;93.75;100847.13;126762;1089;104325;-81
2023/12/08 02:07:36;;;;;;;21.30;8.85;;;;;;;-1.21;93.96;100852.28;126785;1089;101854;-81
2023/12/08 02:10:06;;;;;;;22.17;9.20;;;;;;;-1.23;93.46;100847.00;126810;1089;102310;-82
2023/12/08 02:12:36;;;;;;;24.23;9.67;;;;;;;-1.23;93.70;100848.65;126739;1089;104210;-81
2023/12/08 02:15:06;;;;;;;24.00;9.33;;;;;;;-1.24;94.04;100852.91;126742;1089;104252;-81
2023/12/08 02:17:38;;;;;;;21.03;9.03;;;;;;;-1.25;94.10;100856.23;126862;1089;102299;-81
2023/12/08 02:20:09;;;;;;;23.30;9.80;;;;;;;-1.24;93.64;100863.20;126716;1089;103729;-82
2023/12/08 02:22:38;;;;;;;21.07;8.63;;;;;;;-1.23;93.61;100858.95;126819;1089;101816;-81
2023/12/08 02:25:08;;;;;;;26.07;9.90;;;;;;;-1.24;93.78;100865.78;126769;1089;104245;-81
2023/12/08 02:27:38;;;;;;;21.70;9.80;;;;;;;-1.24;93.46;100863.20;126751;1089;104267;-81
2023/12/08 02:30:09;;;;;;;23.27;9.80;;;;;;;-1.24;94.17;100870.04;126813;1088;104155;-82
2023/12/08 02:32:42;;;;;;;21.47;8.97;;;;;;;-1.23;93.52;100874.40;126834;1089;102088;-81
2023/12/08 02:35:13;;;;;;;21.57;9.40;;;;;;;-1.25;93.69;100874.27;126816;1089;104184;-81
2023/12/08 02:37:45;;;;;;;23.63;9.20;;;;;;;-1.27;94.17;100874.13;126826;1089;104313;-81
2023/12/08 02:40:14;;;;;;;22.40;9.27;;;;;;;-1.26;93.97;100882.78;126759;1089;102166;-81
2023/12/08 02:42:43;;;;;;;22.30;9.27;;;;;;;-1.25;94.73;100886.25;126848;1088;104297;-82
2023/12/08 02:45:13;;;;;;;21.60;9.43;;;;;;;-1.23;94.31;100892.42;126835;1089;104151;-81
2023/12/08 02:47:42;;;;;;;23.07;8.97;;;;;;;-1.21;94.31;100889.23;126719;1089;104159;-81
2023/12/08 02:50:12;;;;;;;23.20;10.00;;;;;;;-1.19;93.81;100894.52;126782;1089;102005;-81
2023/12/08 02:52:40;;;;;;;21.50;9.13;;;;;;;-1.20;94.19;100896.20;126755;1090;104031;-82
2023/12/08 02:55:09;;;;;;;23.17;9.50;;;;;;;-1.19;93.73;100891.94;126867;1089;102015;-81
2023/12/08 02:57:41;;;;;;;24.43;10.30;;;;;;;-1.20;93.91;100885.90;126752;1088;104200;-81
2023/12/08 03:00:12;;;;;;;23.73;9.37;;;;;;;-1.21;94.21;100885.77;126833;1089;104293;-81
2023/12/08 03:02:41;;;;;;;24.40;10.13;;;;;;;-1.22;94.20;100889.09;126812;1089;104246;-81
2023/12/08 03:05:10;;;;;;;22.20;9.67;;;;;;;-1.23;94.16;100890.78;126757;1089;104265;-81
2023/12/08 03:07:39;;;;;;;23.83;9.77;;;;;;;-1.22;94.14;100887.41;126791;1089;104201;-81
2023/12/08 03:10:09;;;;;;;25.27;10.53;;;;;;;-1.23;94.00;100888.20;126829;1089;101794;-81
2023/12/08 03:12:38;;;;;;;22.77;9.67;;;;;;;-1.22;94.26;100894.24;126705;1089;104239;-81
2023/12/08 03:15:09;;;;;;;21.90;9.63;;;;;;;-1.22;93.64;100892.56;126791;1089;101899;-81
2023/12/08 03:17:38;;;;;;;23.87;10.20;;;;;;;-1.21;94.53;100886.66;126737;1089;104311;-80
2023/12/08 03:20:08;;;;;;;22.77;9.80;;;;;;;-1.20;95.02;100893.63;126757;1089;101765;-81
2023/12/08 03:22:37;;;;;;;24.67;10.53;;;;;;;-1.20;94.22;100893.63;126804;1089;104155;-80
2023/12/08 03:25:07;;;;;;;23.50;10.27;;;;;;;-1.21;94.60;100894.37;126772;1089;104261;-81
2023/12/08 03:27:35;;;;;;;23.73;9.77;;;;;;;-1.21;94.75;100896.06;126723;1089;102242;-80
2023/12/08 03:30:07;;;;;;;27.73;11.90;;;;;;;-1.22;94.46;100904.55;126743;1089;104216;-80
2023/12/08 03:32:35;;;;;;;25.13;9.97;;;;;;;-1.24;94.40;100899.26;126801;1089;101816;-81
2023/12/08 03:35:06;;;;;;;23.57;10.50;;;;;;;-1.25;94.60;100902.59;126744;1089;104257;-81
2023/12/08 03:37:34;;;;;;;24.63;10.27;;;;;;;-1.27;94.44;100905.03;126788;1089;101973;-81
2023/12/08 03:40:04;;;;;;;26.63;11.10;;;;;;;-1.26;94.15;100903.38;126773;1089;102217;-82
2023/12/08 03:42:36;;;;;;;24.40;10.15;;;;;;;-1.24;95.20;100888.06;126750;1089;104169;-82
2023/12/08 03:45:06;;;;;;;22.40;10.07;;;;;;;-1.29;93.83;100888.55;126757;1087;102005;-82
2023/12/08 03:47:35;;;;;;;25.07;11.03;;;;;;;-1.25;94.53;100889.71;126769;1088;102057;-82
2023/12/08 03:50:05;;;;;;;24.30;10.60;;;;;;;-1.25;94.86;100889.71;126688;1089;101832;-82
2023/12/08 03:52:33;;;;;;;23.20;10.73;;;;;;;-1.27;94.48;100894.73;126662;1089;101928;-82
2023/12/08 03:55:02;;;;;;;29.27;11.40;;;;;;;-1.27;93.80;100896.41;126617;1089;101877;-82
2023/12/08 03:57:31;;;;;;;23.37;9.70;;;;;;;-1.27;93.80;100899.88;126649;1089;101829;-82
2023/12/08 04:00:00;;;;;;;23.13;10.33;;;;;;;-1.29;93.82;100901.42;126751;1089;104267;-83
2023/12/08 04:02:28;;;;;;;24.80;10.33;;;;;;;-1.30;94.05;100894.45;126753;1089;104155;-81
2023/12/08 04:04:57;;;;;;;27.83;11.70;;;;;;;-1.30;94.78;100893.56;126831;1089;102346;-83
2023/12/08 04:07:26;;;;;;;24.93;10.27;;;;;;;-1.29;93.96;100898.84;126670;1089;103671;-82
2023/12/08 04:09:54;;;;;;;24.70;10.47;;;;;;;-1.30;94.61;100904.75;126758;1089;101891;-81
2023/12/08 04:12:23;;;;;;;26.30;11.30;;;;;;;-1.31;94.54;100896.89;126769;1089;101890;-82
2023/12/08 04:14:52;;;;;;;23.43;10.87;;;;;;;-1.31;94.17;100891.74;126805;1089;102203;-82
2023/12/08 04:17:21;;;;;;;26.77;10.77;;;;;;;-1.30;94.87;100883.27;126709;1089;104446;-83
2023/12/08 04:19:49;;;;;;;24.40;10.73;;;;;;;-1.29;94.42;100882.51;126805;1089;104235;-82
2023/12/08 04:22:18;;;;;;;24.37;10.37;;;;;;;-1.29;94.92;100885.08;126781;1089;102102;-82
2023/12/08 04:24:47;;;;;;;24.17;10.77;;;;;;;-1.31;94.42;100881.44;126831;1089;102263;-81
2023/12/08 04:27:16;;;;;;;26.27;11.33;;;;;;;-1.33;94.94;100870.11;126872;1089;102209;-82
2023/12/08 04:29:44;;;;;;;24.80;10.57;;;;;;;-1.34;94.32;100876.02;126752;1089;118528;-82
2023/12/08 04:32:13;;;;;;;26.33;10.87;;;;;;;-1.34;94.20;100868.30;126703;1090;102108;-82
2023/12/08 04:34:42;;;;;;;24.93;10.97;;;;;;;-1.36;94.21;100870.73;126772;1089;104187;-82
2023/12/08 04:37:11;;;;;;;23.40;10.57;;;;;;;-1.37;94.95;100874.09;126730;1089;102092;-82
2023/12/08 04:39:39;;;;;;;26.63;11.40;;;;;;;-1.38;94.89;100880.00;126794;1089;104209;-81
2023/12/08 04:42:08;;;;;;;25.70;11.03;;;;;;;-1.40;95.38;100876.40;126753;1089;102856;-82
2023/12/08 04:44:37;;;;;;;24.10;10.83;;;;;;;-1.40;94.53;100880.63;126711;1089;101844;-82
2023/12/08 04:47:06;;;;;;;26.90;11.33;;;;;;;-1.40;94.76;100885.77;126686;1089;101905;-81
2023/12/08 04:49:34;;;;;;;26.37;10.73;;;;;;;-1.41;94.68;100886.56;126712;1089;104162;-81
2023/12/08 04:52:04;;;;;;;23.57;10.70;;;;;;;-1.42;95.21;100882.16;126731;1089;102280;-81
2023/12/08 04:54:32;;;;;;;24.73;11.07;;;;;;;-1.42;95.47;100887.31;126732;1089;104190;-82
2023/12/08 04:57:04;;;;;;;26.20;11.07;;;;;;;-1.43;94.51;100882.92;126660;1089;103092;-82
2023/12/08 04:59:33;;;;;;;26.20;11.00;;;;;;;-1.45;95.04;100886.28;126742;1089;104267;-82
2023/12/08 05:02:02;;;;;;;24.50;10.67;;;;;;;-1.43;94.74;100891.57;126771;1089;102146;-82
2023/12/08 05:04:30;;;;;;;25.90;11.00;;;;;;;-1.44;94.56;100887.17;126729;1089;104133;-82
2023/12/08 05:06:59;;;;;;;26.83;12.23;;;;;;;-1.44;94.67;100894.90;126737;1089;104306;-82
2023/12/08 05:09:28;;;;;;;28.20;11.70;;;;;;;-1.46;94.80;100889.61;127600;1088;104251;-82
2023/12/08 05:11:57;;;;;;;30.13;11.17;;;;;;;-1.47;95.19;100886.91;126776;1088;102194;-82
2023/12/08 05:14:25;;;;;;;30.23;12.13;;;;;;;-1.48;94.83;100891.16;126766;1089;101886;-80
2023/12/08 05:16:54;;;;;;;26.37;11.73;;;;;;;-1.48;94.84;100898.88;126811;1089;101919;-81
2023/12/08 05:19:23;;;;;;;29.43;12.17;;;;;;;-1.48;94.45;100897.95;126661;1089;101928;-82
2023/12/08 05:21:52;;;;;;;28.83;13.33;;;;;;;-1.50;94.83;100895.24;126750;1089;104296;-80
2023/12/08 05:24:20;;;;;;;27.87;13.07;;;;;;;-1.51;95.52;100892.53;126449;1089;104117;-78
2023/12/08 05:26:49;;;;;;;27.67;12.80;;;;;;;-1.53;94.47;100888.92;126366;1089;104209;-79
2023/12/08 05:29:18;;;;;;;28.47;12.37;;;;;;;-1.55;94.70;100893.94;126558;1089;104229;-79
2023/12/08 05:31:47;;;;;;;25.47;11.93;;;;;;;-1.55;95.09;100893.05;126492;1089;104257;-78
2023/12/08 05:34:15;;;;;;;25.83;11.00;;;;;;;-1.56;95.01;100896.37;126554;1089;104228;-79
2023/12/08 05:36:44;;;;;;;24.17;11.40;;;;;;;-1.58;94.87;100898.80;126593;1088;102472;-81
2023/12/08 05:39:16;;;;;;;29.50;12.23;;;;;;;-1.57;94.54;100891.98;126401;1089;104226;-81
2023/12/08 05:41:45;;;;;;;28.10;11.85;;;;;;;-1.60;95.18;100897.77;126486;1090;101857;-81
2023/12/08 05:44:16;;;;;;;28.23;11.43;;;;;;;-1.56;95.21;100896.37;126590;1089;104341;-80
2023/12/08 05:46:44;;;;;;;25.27;11.30;;;;;;;-1.56;95.21;100898.95;126433;1089;104280;-79
2023/12/08 05:49:13;;;;;;;27.23;12.67;;;;;;;-1.57;95.15;100890.33;126881;1089;104185;-79
2023/12/08 05:51:42;;;;;;;30.10;12.10;;;;;;;-1.57;94.92;100887.76;126722;1089;104200;-78
2023/12/08 05:54:11;;;;;;;29.90;12.77;;;;;;;-1.56;95.32;100880.92;126712;1089;102401;-79
2023/12/08 05:56:40;;;;;;;29.27;11.60;;;;;;;-1.54;95.68;100884.53;126899;1089;104370;-78
2023/12/08 05:59:09;;;;;;;26.93;12.80;;;;;;;-1.53;94.63;100897.53;126971;1089;102029;-80
2023/12/08 06:01:38;;;;;;;29.17;13.10;;;;;;;-1.51;95.42;100889.95;126743;1089;104188;-79
2023/12/08 06:04:06;;;;;;;29.43;13.17;;;;;;;-1.46;94.65;100892.19;126698;1089;104225;-79
2023/12/08 06:06:35;;;;;;;27.93;12.27;;;;;;;-1.43;95.59;100888.07;126887;1089;104168;-80
2023/12/08 06:09:04;;;;;;;29.20;13.20;;;;;;;-1.39;96.06;100891.05;126732;1088;104264;-78
2023/12/08 06:11:33;;;;;;;27.57;12.07;;;;;;;-1.36;95.59;100887.86;126639;1089;101829;-78
2023/12/08 06:14:02;;;;;;;29.20;12.77;;;;;;;-1.34;94.99;100894.97;126791;1090;101870;-78
2023/12/08 06:16:31;;;;;;;27.70;12.83;;;;;;;-1.31;95.21;100896.89;127001;1089;104206;-79
2023/12/08 06:18:59;;;;;;;27.70;12.80;;;;;;;-1.28;95.53;100890.37;126701;1089;102867;-77
2023/12/08 06:21:28;;;;;;;28.00;12.03;;;;;;;-1.24;94.55;100890.64;126657;1089;103424;-77
2023/12/08 06:23:58;;;;;;;27.03;12.17;;;;;;;-1.22;94.42;100892.56;126255;1089;104178;-78
2023/12/08 06:26:27;;;;;;;28.67;12.17;;;;;;;-1.21;94.68;100894.37;126645;1089;104203;-78
2023/12/08 06:28:56;;;;;;;28.40;12.47;;;;;;;-1.16;95.01;100902.52;126269;1089;101819;-75
2023/12/08 06:31:27;;;;;;;29.23;13.13;;;;;;;-1.15;94.99;100902.65;126749;1089;104177;-80
2023/12/08 06:33:56;;;;;;;30.87;13.07;;;;;;;-1.11;95.13;100907.31;126853;1090;102319;-79
2023/12/08 06:36:29;;;;;;;29.83;13.43;;;;;;;-1.12;95.40;100902.92;126357;1090;101983;-80
2023/12/08 06:38:58;;;;;;;31.83;13.23;;;;;;;-1.10;94.90;100906.53;126400;1089;104281;-79
2023/12/08 06:41:26;;;;;;;30.13;12.97;;;;;;;-1.06;95.43;100911.95;126099;1089;104168;-78
2023/12/08 06:43:55;;;;;;;30.43;13.37;;;;;;;-1.04;94.61;100923.28;126323;1089;104244;-79
2023/12/08 06:46:27;;;;;;;28.93;13.73;;;;;;;-1.02;94.86;100921.77;126135;1089;104200;-79
2023/12/08 06:48:57;;;;;;;28.73;13.50;;;;;;;-0.99;95.33;100932.34;126134;1089;104241;-78
2023/12/08 06:51:25;;;;;;;28.67;13.53;;;;;;;-0.95;95.02;100929.25;126629;1089;104158;-78
2023/12/08 06:54:04;;;;;;;32.37;15.00;;;;;;;-0.90;94.86;100925.43;126273;1089;102051;-80
2023/12/08 06:56:34;;;;;;;31.40;13.80;;;;;;;-0.85;94.80;100926.73;126333;1089;104157;-78
2023/12/08 06:59:11;;;;;;;35.87;15.10;;;;;;;-0.80;95.24;100921.98;126271;1089;104255;-80
2023/12/08 07:01:55;;;;;;;34.40;15.90;;;;;;;-0.77;94.41;100920.56;126286;1089;104203;-78
2023/12/08 07:04:31;;;;;;;34.23;15.47;;;;;;;-0.70;94.66;100928.83;126027;1089;104162;-77
2023/12/08 07:07:19;;;;;;;33.60;15.07;;;;;;;-0.67;95.00;100929.09;127544;1089;101823;-82
2023/12/08 07:09:55;;;;;;;36.10;16.40;;;;;;;-0.64;95.18;100927.72;127584;1089;101663;-80
2023/12/08 07:12:26;;;;;;;36.83;16.30;;;;;;;-0.61;94.56;100927.05;127119;1089;101948;-79
2023/12/08 07:15:00;;;;;;;34.03;15.33;;;;;;;-0.59;94.48;100933.27;127593;1089;101874;-79
2023/12/08 07:17:29;;;;;;;31.53;14.70;;;;;;;-0.54;94.51;100931.98;126880;1089;104207;-80
2023/12/08 07:19:59;;;;;;;35.70;15.30;;;;;;;-0.54;94.33;100931.98;126395;1089;102001;-82
2023/12/08 07:22:32;;;;;;;33.63;15.07;;;;;;;-0.50;94.74;100923.73;127421;1089;102080;-78
2023/12/08 07:25:09;;;;;;;32.20;15.07;;;;;;;-0.50;94.78;100930.56;127167;1089;104165;-82
2023/12/08 07:27:40;;;;;;;35.80;15.87;;;;;;;-0.48;94.72;100921.28;127205;1089;104165;-80
2023/12/08 07:30:18;;;;;;;35.57;17.03;;;;;;;-0.44;94.32;100925.94;128005;1088;101755;-82
2023/12/08 07:32:54;;;;;;;38.77;16.60;;;;;;;-0.38;94.46;100929.05;127949;1089;101625;-80
2023/12/08 07:35:32;;;;;;;34.15;15.60;;;;;;;-0.36;94.83;100932.66;128020;1088;104200;-79
2023/12/08 07:38:16;;;;;;;33.97;14.90;;;;;;;-0.33;94.76;100932.02;127689;1088;102005;-79
2023/12/08 07:41:03;;;;;;;34.60;16.07;;;;;;;-0.33;94.72;100937.19;127431;1089;104104;-86
2023/12/08 07:43:35;;;;;;;34.60;15.17;;;;;;;-0.35;93.76;100933.58;128005;1089;104181;-80
2023/12/08 07:46:10;;;;;;;36.93;15.40;;;;;;;-0.38;94.23;100932.52;127048;1089;104037;-79
2023/12/08 07:48:58;;;;;;;33.95;14.45;;;;;;;-0.38;94.52;100929.94;126497;1089;101829;-78
2023/12/08 07:51:28;;;;;;;33.17;15.20;;;;;;;-0.33;94.50;100932.02;126113;1090;102023;-78
2023/12/08 07:53:57;;;;;;;34.40;15.30;;;;;;;-0.30;94.35;100938.34;126078;1089;102397;-78
2023/12/08 07:56:31;;;;;;;37.83;15.20;;;;;;;-0.27;93.99;100933.44;127177;1089;102172;-78
2023/12/08 07:59:04;;;;;;;34.00;14.73;;;;;;;-0.21;94.30;100935.66;125891;1089;104204;-75
2023/12/08 08:01:55;;;;;;;;;;;;;;;;;;;;;
2023/12/08 08:04:31;;;;;;;32.73;14.33;;;;;;;-0.20;93.52;100937.47;126858;1086;118236;-79
2023/12/08 08:07:04;;;;;;;34.90;14.40;;;;;;;-0.19;93.72;100935.03;126933;1086;104318;-80
2023/12/08 08:09:42;;;;;;;34.37;15.03;;;;;;;-0.17;93.73;100932.58;125988;1087;104261;-76
2023/12/08 08:12:12;;;;;;;34.07;15.47;;;;;;;-0.15;93.26;100935.29;125910;1086;104156;-78
2023/12/08 08:14:42;;;;;;;33.30;16.13;;;;;;;-0.10;93.91;100931.41;125974;1086;101873;-79
2023/12/08 08:17:19;;;;;;;35.33;16.33;;;;;;;-0.07;93.86;100929.09;126118;1086;104293;-79
2023/12/08 08:19:59;;;;;;;33.67;15.57;;;;;;;0.02;94.12;100931.53;125980;1089;101925;-77
2023/12/08 08:22:34;;;;;;;32.30;15.17;;;;;;;0.05;93.91;100931.79;125995;1086;104249;-75
2023/12/08 08:25:23;;;;;;;30.93;14.47;;;;;;;0.10;93.49;100927.94;125932;1086;104229;-77
2023/12/08 08:28:11;;;;;;;;;;;;;;;;;;;;;
2023/12/08 08:30:52;;;;;;;34.90;14.60;;;;;;;0.16;93.33;100925.88;125973;1086;102080;-77
2023/12/08 08:33:56;;;;;;;;;;;;;;;;;;;;;
2023/12/08 08:36:48;;;;;;;32.67;14.13;;;;;;;0.26;92.82;100909.47;126124;1086;102209;-80
2023/12/08 08:39:21;;;;;;;34.60;14.23;;;;;;;0.26;92.69;100909.47;127005;1086;104164;-81
2023/12/08 08:41:55;;;;;;;36.30;16.10;;;;;;;0.30;92.78;100915.02;127056;1086;104159;-78
2023/12/08 08:44:30;;;;;;;33.63;14.83;;;;;;;0.33;92.98;100915.27;126084;1086;102367;-75
2023/12/08 08:47:05;;;;;;;34.80;15.33;;;;;;;0.32;92.73;100912.56;127561;1086;106974;-76
2023/12/08 08:49:46;;;;;;;31.60;14.30;;;;;;;0.32;92.73;100905.71;126445;1086;104187;-78
2023/12/08 08:52:21;;;;;;;34.40;15.37;;;;;;;0.40;93.10;100903.77;126254;1086;101955;-79
2023/12/08 08:54:58;;;;;;;32.10;14.80;;;;;;;0.51;92.53;100894.33;126332;1086;101902;-76
2023/12/08 08:57:30;;;;;;;30.90;14.40;;;;;;;0.56;92.10;100893.01;126918;1086;104316;-79
2023/12/08 09:00:21;;;;;;;29.43;14.50;;;;;;;0.63;92.36;100895.33;126380;1086;101894;-76
2023/12/08 09:03:10;;;;;;;33.50;15.20;;;;;;;0.74;92.90;100892.73;126423;1087;101872;-81
2023/12/08 09:05:57;;;;;;;32.70;14.80;;;;;;;0.78;91.06;100894.77;127320;1087;104069;-83
2023/12/08 09:08:53;;;;;;;;;;;;;;;;;;;;;
2023/12/08 09:11:33;;;;;;;28.93;13.90;;;;;;;0.75;92.04;100902.27;126276;1087;102156;-80
2023/12/08 09:14:12;;;;;;;30.97;14.90;;;;;;;0.76;91.59;100909.24;128883;1085;102038;-85
2023/12/08 09:17:09;;;;;;;29.73;13.57;;;;;;;0.71;91.29;100907.18;127918;1089;101942;-76
2023/12/08 09:19:51;;;;;;;30.53;14.00;;;;;;;0.71;91.96;100902.02;126066;1089;104392;-78
2023/12/08 09:22:46;;;;;;;31.80;14.73;;;;;;;0.80;92.03;100895.81;127362;1086;104194;-80
2023/12/08 09:25:52;;;;;;;32.53;14.53;;;;;;;0.87;92.02;100908.42;128571;1086;104237;-79
2023/12/08 09:28:38;;;;;;;;;;;;;;;;;;;;;
2023/12/08 09:31:21;;;;;;;27.87;13.67;;;;;;;0.93;90.91;100898.59;127725;1089;101760;-85
2023/12/08 09:33:53;;;;;;;28.83;13.93;;;;;;;0.90;91.03;100903.50;127800;1089;104081;-82
2023/12/08 09:36:33;;;;;;;28.37;14.57;;;;;;;0.87;91.20;100917.10;128355;1085;101609;-85
2023/12/08 09:39:29;;;;;;;29.17;13.57;;;;;;;0.86;90.19;100911.81;128292;1085;102304;-81
2023/12/08 09:42:15;;;;;;;27.77;13.13;;;;;;;0.77;89.79;100911.06;128085;1086;101964;-83
2023/12/08 09:45:17;;;;;;;;;;;;;;;;;;;;;
2023/12/08 09:48:11;;;;;;;27.17;13.30;;;;;;;0.74;90.63;100880.70;126429;1086;104334;-79
2023/12/08 09:50:51;;;;;;;28.87;13.27;;;;;;;0.74;90.24;100891.04;128530;1086;101750;-78
2023/12/08 09:53:26;;;;;;;31.10;14.00;;;;;;;0.75;90.17;100877.36;126261;1089;102069;-79
2023/12/08 09:56:03;;;;;;;29.63;14.90;;;;;;;0.80;90.77;100876.03;128954;1086;101433;-79
2023/12/08 09:58:35;;;;;;;29.93;13.63;;;;;;;0.89;90.90;100866.44;128281;1086;101151;-80
2023/12/08 10:01:28;;;;;;;31.27;13.77;;;;;;;0.97;90.91;100874.81;128001;1086;104184;-80
2023/12/08 10:04:18;;;;;;;31.63;14.50;;;;;;;0.99;90.82;100867.17;128072;1086;101773;-79
2023/12/08 10:06:56;;;;;;;29.65;14.60;;;;;;;0.99;89.87;100865.48;127890;1089;101832;-80
2023/12/08 10:09:38;;;;;;;30.50;13.40;;;;;;;1.01;89.76;100868.19;127970;1086;102020;-83
2023/12/08 10:12:15;;;;;;;28.67;13.80;;;;;;;1.01;89.66;100868.19;127624;1086;101803;-85
2023/12/08 10:15:06;;;;;;;29.37;14.73;;;;;;;1.00;89.79;100869.88;128247;1086;101778;-80
2023/12/08 10:17:54;;;;;;;28.90;13.50;;;;;;;1.02;89.36;100865.73;126594;1086;104159;-78
2023/12/08 10:20:27;;;;;;;31.30;12.90;;;;;;;1.00;89.35;100872.47;126096;1089;104263;-76
2023/12/08 10:23:04;;;;;;;26.10;12.60;;;;;;;0.96;88.86;100875.58;125970;1086;104188;-77
2023/12/08 10:25:39;;;;;;;31.17;14.90;;;;;;;0.98;90.04;100860.19;125964;1088;104321;-75
2023/12/08 10:28:11;;;;;;;29.65;14.18;;;;;;;1.03;89.60;100870.13;125842;1089;104303;-76
2023/12/08 10:30:50;;;;;;;30.53;14.53;;;;;;;1.09;89.91;100869.69;125891;1086;104260;-76
2023/12/08 10:33:21;;;;;;;29.13;13.53;;;;;;;1.08;89.11;100863.63;125919;1086;104344;-79
2023/12/08 10:35:52;;;;;;;29.43;13.87;;;;;;;1.07;89.94;100859.23;125949;1086;104322;-75
2023/12/08 10:38:28;;;;;;;29.03;14.50;;;;;;;1.09;89.32;100867.11;126114;1089;102611;-79
2023/12/08 10:40:58;;;;;;;29.32;14.20;;;;;;;1.11;89.02;100865.56;126264;1085;104172;-76
2023/12/08 10:43:30;;;;;;;28.43;14.30;;;;;;;1.11;89.76;100867.23;126005;1086;101956;-78
2023/12/08 10:46:32;;;;;;;29.60;13.50;;;;;;;1.07;89.15;100866.98;126130;1086;104175;-76
2023/12/08 10:49:15;;;;;;;27.90;13.37;;;;;;;1.04;88.82;100865.84;126070;1087;103727;-76
2023/12/08 10:51:46;;;;;;;27.63;13.67;;;;;;;1.06;89.12;100859.11;126223;1086;104132;-77
2023/12/08 10:54:33;;;;;;;31.03;15.50;;;;;;;1.10;89.35;100868.03;126293;1086;102274;-78
2023/12/08 10:57:05;;;;;;;28.62;12.73;;;;;;;1.12;88.67;100864.77;126083;1086;101841;-76
2023/12/08 10:59:42;;;;;;;29.73;14.23;;;;;;;1.12;88.93;100861.29;126046;1086;118703;-77
2023/12/08 11:03:09;;;;;;;;;;;;;;;;;;;;;
2023/12/08 11:06:22;;;;;;;28.40;14.33;;;;;;;1.17;89.08;100866.05;126182;1089;101922;-81
2023/12/08 11:09:03;;;;;;;30.27;14.33;;;;;;;1.24;88.75;100862.27;127544;1089;102113;-79
2023/12/08 11:11:40;;;;;;;28.40;13.47;;;;;;;1.20;88.04;100860.20;126262;1086;102446;-80
2023/12/08 11:14:32;;;;;;;29.85;14.05;;;;;;;1.14;88.96;100859.72;126239;1089;104353;-79
2023/12/08 11:17:29;;;;;;;29.67;15.10;;;;;;;1.12;89.14;100858.70;126905;1086;102322;-79
2023/12/08 11:20:14;;;;;;;28.80;14.67;;;;;;;1.13;88.24;100855.35;126204;1086;102212;-80
2023/12/08 11:22:46;;;;;;;30.93;14.97;;;;;;;1.08;88.87;100850.70;126002;1086;104204;-78
2023/12/08 11:25:22;;;;;;;29.43;15.03;;;;;;;1.05;88.14;100850.47;125987;1086;102041;-76
2023/12/08 11:28:03;;;;;;;29.90;14.70;;;;;;;1.04;88.43;100852.92;127259;1086;101897;-75
2023/12/08 11:30:41;;;;;;;29.30;14.93;;;;;;;0.99;88.64;100855.14;125897;1090;109947;-77
2023/12/08 11:33:30;;;;;;;31.47;14.67;;;;;;;0.92;88.17;100868.38;126043;1090;104245;-81
2023/12/08 11:36:18;;;;;;;29.90;14.60;;;;;;;0.86;88.67;100867.89;128515;1085;101687;-80